sensor_id;sensor_type;location;lat;lon;timestamp;P1;durP1;ratioP1;P2;durP2;ratioP2
59571;SDS011;74587;45.880;11.484;2024-03-02T00:00:06;2.73;;;0.50;;
59571;SDS011;74587;45.880;11.484;2024-03-02T00:02:39;3.05;;;0.50;;
59571;SDS011;74587;45.880;11.484;2024-03-02T00:05:27;5.70;;;0.70;;
59571;SDS011;74587;45.880;11.484;2024-03-02T00:08:07;3.63;;;0.60;;
59571;SDS011;74587;45.880;11.484;2024-03-02T00:10:37;7.20;;;0.65;;
59571;SDS011;74587;45.880;11.484;2024-03-02T00:13:05;6.33;;;0.33;;
59571;SDS011;74587;45.880;11.484;2024-03-02T00:17:57;5.20;;;0.30;;
59571;SDS011;74587;45.880;11.484;2024-03-02T00:20:24;4.83;;;0.50;;
59571;SDS011;74587;45.880;11.484;2024-03-02T00:22:58;6.05;;;0.50;;
59571;SDS011;74587;45.880;11.484;2024-03-02T00:25:36;3.40;;;0.80;;
59571;SDS011;74587;45.880;11.484;2024-03-02T00:33:18;4.57;;;0.40;;
59571;SDS011;74587;45.880;11.484;2024-03-02T00:35:46;6.88;;;0.77;;
59571;SDS011;74587;45.880;11.484;2024-03-02T00:38:11;4.88;;;0.50;;
59571;SDS011;74587;45.880;11.484;2024-03-02T00:40:39;4.20;;;0.40;;
59571;SDS011;74587;45.880;11.484;2024-03-02T00:43:05;4.07;;;0.47;;
59571;SDS011;74587;45.880;11.484;2024-03-02T00:45:31;9.03;;;0.50;;
59571;SDS011;74587;45.880;11.484;2024-03-02T00:47:57;4.00;;;0.80;;
59571;SDS011;74587;45.880;11.484;2024-03-02T00:50:22;3.67;;;1.10;;
59571;SDS011;74587;45.880;11.484;2024-03-02T00:52:48;3.30;;;0.70;;
59571;SDS011;74587;45.880;11.484;2024-03-02T00:55:14;2.70;;;0.40;;
59571;SDS011;74587;45.880;11.484;2024-03-02T00:57:40;3.90;;;0.73;;
59571;SDS011;74587;45.880;11.484;2024-03-02T01:00:06;5.77;;;0.50;;
59571;SDS011;74587;45.880;11.484;2024-03-02T01:02:52;5.10;;;0.80;;
59571;SDS011;74587;45.880;11.484;2024-03-02T01:05:18;4.88;;;0.55;;
59571;SDS011;74587;45.880;11.484;2024-03-02T01:07:43;6.40;;;0.70;;
59571;SDS011;74587;45.880;11.484;2024-03-02T01:10:09;2.88;;;0.60;;
59571;SDS011;74587;45.880;11.484;2024-03-02T01:12:35;4.53;;;0.50;;
59571;SDS011;74587;45.880;11.484;2024-03-02T01:15:01;3.85;;;0.55;;
59571;SDS011;74587;45.880;11.484;2024-03-02T01:17:29;5.63;;;0.60;;
59571;SDS011;74587;45.880;11.484;2024-03-02T01:19:54;2.60;;;0.50;;
59571;SDS011;74587;45.880;11.484;2024-03-02T01:22:20;4.25;;;0.43;;
59571;SDS011;74587;45.880;11.484;2024-03-02T01:24:50;3.53;;;0.40;;
59571;SDS011;74587;45.880;11.484;2024-03-02T01:27:15;4.00;;;0.33;;
59571;SDS011;74587;45.880;11.484;2024-03-02T01:29:41;3.38;;;0.50;;
59571;SDS011;74587;45.880;11.484;2024-03-02T01:32:07;6.90;;;0.67;;
59571;SDS011;74587;45.880;11.484;2024-03-02T01:34:33;4.28;;;0.80;;
59571;SDS011;74587;45.880;11.484;2024-03-02T01:36:58;6.27;;;0.70;;
59571;SDS011;74587;45.880;11.484;2024-03-02T01:39:24;4.82;;;0.90;;
59571;SDS011;74587;45.880;11.484;2024-03-02T01:41:50;4.17;;;0.87;;
59571;SDS011;74587;45.880;11.484;2024-03-02T01:44:16;5.07;;;0.50;;
59571;SDS011;74587;45.880;11.484;2024-03-02T01:46:42;7.10;;;0.57;;
59571;SDS011;74587;45.880;11.484;2024-03-02T01:49:10;4.75;;;0.68;;
59571;SDS011;74587;45.880;11.484;2024-03-02T01:51:36;6.60;;;1.55;;
59571;SDS011;74587;45.880;11.484;2024-03-02T01:54:02;5.37;;;0.73;;
59571;SDS011;74587;45.880;11.484;2024-03-02T01:56:27;4.80;;;0.60;;
59571;SDS011;74587;45.880;11.484;2024-03-02T01:58:53;6.13;;;0.60;;
59571;SDS011;74587;45.880;11.484;2024-03-02T02:01:19;3.05;;;0.55;;
59571;SDS011;74587;45.880;11.484;2024-03-02T02:03:45;5.45;;;0.70;;
59571;SDS011;74587;45.880;11.484;2024-03-02T02:06:11;2.97;;;0.47;;
59571;SDS011;74587;45.880;11.484;2024-03-02T02:08:37;5.82;;;0.60;;
59571;SDS011;74587;45.880;11.484;2024-03-02T02:11:03;4.93;;;0.70;;
59571;SDS011;74587;45.880;11.484;2024-03-02T02:13:28;5.57;;;0.50;;
59571;SDS011;74587;45.880;11.484;2024-03-02T02:15:54;3.63;;;0.55;;
59571;SDS011;74587;45.880;11.484;2024-03-02T02:18:20;3.80;;;0.50;;
59571;SDS011;74587;45.880;11.484;2024-03-02T02:20:45;5.90;;;0.77;;
59571;SDS011;74587;45.880;11.484;2024-03-02T02:23:11;3.53;;;0.47;;
59571;SDS011;74587;45.880;11.484;2024-03-02T02:25:38;3.60;;;0.90;;
59571;SDS011;74587;45.880;11.484;2024-03-02T02:28:04;7.37;;;0.40;;
59571;SDS011;74587;45.880;11.484;2024-03-02T02:30:31;4.90;;;0.57;;
59571;SDS011;74587;45.880;11.484;2024-03-02T02:32:58;5.90;;;0.93;;
59571;SDS011;74587;45.880;11.484;2024-03-02T02:35:24;5.35;;;0.43;;
59571;SDS011;74587;45.880;11.484;2024-03-02T02:37:49;2.93;;;0.30;;
59571;SDS011;74587;45.880;11.484;2024-03-02T02:40:17;2.55;;;0.52;;
59571;SDS011;74587;45.880;11.484;2024-03-02T02:42:44;6.38;;;0.50;;
59571;SDS011;74587;45.880;11.484;2024-03-02T02:45:09;5.53;;;0.73;;
59571;SDS011;74587;45.880;11.484;2024-03-02T02:47:36;4.53;;;0.40;;
59571;SDS011;74587;45.880;11.484;2024-03-02T02:50:02;3.67;;;0.60;;
59571;SDS011;74587;45.880;11.484;2024-03-02T02:52:35;4.22;;;0.50;;
59571;SDS011;74587;45.880;11.484;2024-03-02T02:55:04;2.93;;;0.50;;
59571;SDS011;74587;45.880;11.484;2024-03-02T02:57:32;5.32;;;0.52;;
59571;SDS011;74587;45.880;11.484;2024-03-02T03:00:01;3.92;;;0.60;;
59571;SDS011;74587;45.880;11.484;2024-03-02T03:02:30;2.75;;;0.40;;
59571;SDS011;74587;45.880;11.484;2024-03-02T03:04:56;7.27;;;0.70;;
59571;SDS011;74587;45.880;11.484;2024-03-02T03:07:22;9.03;;;0.50;;
59571;SDS011;74587;45.880;11.484;2024-03-02T03:09:48;5.15;;;0.55;;
59571;SDS011;74587;45.880;11.484;2024-03-02T03:12:14;3.08;;;0.60;;
59571;SDS011;74587;45.880;11.484;2024-03-02T03:14:42;7.23;;;0.70;;
59571;SDS011;74587;45.880;11.484;2024-03-02T03:17:08;4.88;;;0.63;;
59571;SDS011;74587;45.880;11.484;2024-03-02T03:19:34;4.80;;;0.40;;
59571;SDS011;74587;45.880;11.484;2024-03-02T03:22:00;4.82;;;0.60;;
59571;SDS011;74587;45.880;11.484;2024-03-02T03:24:26;2.08;;;0.30;;
59571;SDS011;74587;45.880;11.484;2024-03-02T03:26:52;4.07;;;0.50;;
59571;SDS011;74587;45.880;11.484;2024-03-02T03:29:17;6.38;;;0.93;;
59571;SDS011;74587;45.880;11.484;2024-03-02T03:31:43;6.40;;;1.00;;
59571;SDS011;74587;45.880;11.484;2024-03-02T03:34:09;5.40;;;1.00;;
59571;SDS011;74587;45.880;11.484;2024-03-02T03:36:34;4.43;;;0.50;;
59571;SDS011;74587;45.880;11.484;2024-03-02T03:39:01;5.80;;;0.60;;
59571;SDS011;74587;45.880;11.484;2024-03-02T03:41:28;6.18;;;0.57;;
59571;SDS011;74587;45.880;11.484;2024-03-02T03:43:54;4.97;;;0.40;;
59571;SDS011;74587;45.880;11.484;2024-03-02T03:46:20;6.10;;;0.35;;
59571;SDS011;74587;45.880;11.484;2024-03-02T03:48:46;2.83;;;0.40;;
59571;SDS011;74587;45.880;11.484;2024-03-02T03:51:11;5.50;;;0.70;;
59571;SDS011;74587;45.880;11.484;2024-03-02T03:53:37;4.33;;;0.60;;
59571;SDS011;74587;45.880;11.484;2024-03-02T03:56:03;5.00;;;0.40;;
59571;SDS011;74587;45.880;11.484;2024-03-02T03:58:29;4.83;;;1.13;;
59571;SDS011;74587;45.880;11.484;2024-03-02T04:04:07;4.10;;;0.50;;
59571;SDS011;74587;45.880;11.484;2024-03-02T04:06:32;7.57;;;0.57;;
59571;SDS011;74587;45.880;11.484;2024-03-02T04:08:59;8.10;;;0.68;;
59571;SDS011;74587;45.880;11.484;2024-03-02T04:11:25;5.90;;;0.80;;
59571;SDS011;74587;45.880;11.484;2024-03-02T04:13:50;5.40;;;0.60;;
59571;SDS011;74587;45.880;11.484;2024-03-02T04:16:16;5.22;;;0.80;;
59571;SDS011;74587;45.880;11.484;2024-03-02T04:18:42;4.70;;;0.70;;
59571;SDS011;74587;45.880;11.484;2024-03-02T04:21:07;7.70;;;1.00;;
59571;SDS011;74587;45.880;11.484;2024-03-02T04:23:33;6.72;;;0.90;;
59571;SDS011;74587;45.880;11.484;2024-03-02T04:25:59;5.10;;;0.73;;
59571;SDS011;74587;45.880;11.484;2024-03-02T04:28:24;4.72;;;0.57;;
59571;SDS011;74587;45.880;11.484;2024-03-02T04:30:50;2.83;;;0.40;;
59571;SDS011;74587;45.880;11.484;2024-03-02T04:33:16;4.45;;;0.57;;
59571;SDS011;74587;45.880;11.484;2024-03-02T04:35:41;6.73;;;0.50;;
59571;SDS011;74587;45.880;11.484;2024-03-02T04:38:07;5.90;;;0.60;;
59571;SDS011;74587;45.880;11.484;2024-03-02T04:40:33;4.87;;;0.60;;
59571;SDS011;74587;45.880;11.484;2024-03-02T04:42:58;4.27;;;0.60;;
59571;SDS011;74587;45.880;11.484;2024-03-02T04:45:24;6.17;;;1.03;;
59571;SDS011;74587;45.880;11.484;2024-03-02T04:47:50;6.15;;;0.82;;
59571;SDS011;74587;45.880;11.484;2024-03-02T04:50:16;7.40;;;0.60;;
59571;SDS011;74587;45.880;11.484;2024-03-02T04:52:41;3.65;;;0.52;;
59571;SDS011;74587;45.880;11.484;2024-03-02T04:55:07;4.10;;;0.50;;
59571;SDS011;74587;45.880;11.484;2024-03-02T04:57:54;3.35;;;0.68;;
59571;SDS011;74587;45.880;11.484;2024-03-02T05:00:21;3.35;;;0.40;;
59571;SDS011;74587;45.880;11.484;2024-03-02T05:02:46;4.03;;;0.40;;
59571;SDS011;74587;45.880;11.484;2024-03-02T05:05:12;4.40;;;0.40;;
59571;SDS011;74587;45.880;11.484;2024-03-02T05:07:40;3.63;;;0.20;;
59571;SDS011;74587;45.880;11.484;2024-03-02T05:10:08;4.83;;;0.67;;
59571;SDS011;74587;45.880;11.484;2024-03-02T05:12:34;2.70;;;0.38;;
59571;SDS011;74587;45.880;11.484;2024-03-02T05:15:21;4.45;;;0.70;;
59571;SDS011;74587;45.880;11.484;2024-03-02T05:17:47;3.35;;;0.40;;
59571;SDS011;74587;45.880;11.484;2024-03-02T05:20:13;8.83;;;0.60;;
59571;SDS011;74587;45.880;11.484;2024-03-02T05:22:39;5.78;;;0.50;;
59571;SDS011;74587;45.880;11.484;2024-03-02T05:25:05;4.63;;;0.70;;
59571;SDS011;74587;45.880;11.484;2024-03-02T05:27:31;4.17;;;0.60;;
59571;SDS011;74587;45.880;11.484;2024-03-02T05:29:58;3.55;;;0.88;;
59571;SDS011;74587;45.880;11.484;2024-03-02T05:32:24;9.70;;;0.90;;
59571;SDS011;74587;45.880;11.484;2024-03-02T05:34:50;3.33;;;0.57;;
59571;SDS011;74587;45.880;11.484;2024-03-02T05:37:16;4.17;;;0.60;;
59571;SDS011;74587;45.880;11.484;2024-03-02T05:39:42;4.78;;;0.73;;
59571;SDS011;74587;45.880;11.484;2024-03-02T05:42:10;3.88;;;0.60;;
59571;SDS011;74587;45.880;11.484;2024-03-02T05:44:36;5.30;;;0.50;;
59571;SDS011;74587;45.880;11.484;2024-03-02T05:47:02;6.85;;;0.35;;
59571;SDS011;74587;45.880;11.484;2024-03-02T05:49:29;5.60;;;0.77;;
59571;SDS011;74587;45.880;11.484;2024-03-02T05:51:54;5.00;;;0.50;;
59571;SDS011;74587;45.880;11.484;2024-03-02T05:54:21;6.97;;;0.50;;
59571;SDS011;74587;45.880;11.484;2024-03-02T05:56:47;5.30;;;0.65;;
59571;SDS011;74587;45.880;11.484;2024-03-02T05:59:13;3.57;;;0.40;;
59571;SDS011;74587;45.880;11.484;2024-03-02T06:01:39;5.47;;;0.82;;
59571;SDS011;74587;45.880;11.484;2024-03-02T06:04:05;6.75;;;0.80;;
59571;SDS011;74587;45.880;11.484;2024-03-02T06:06:31;4.07;;;1.00;;
59571;SDS011;74587;45.880;11.484;2024-03-02T06:08:59;8.85;;;1.70;;
59571;SDS011;74587;45.880;11.484;2024-03-02T06:11:26;4.95;;;1.30;;
59571;SDS011;74587;45.880;11.484;2024-03-02T06:13:51;13.82;;;5.70;;
59571;SDS011;74587;45.880;11.484;2024-03-02T06:16:17;18.97;;;8.93;;
59571;SDS011;74587;45.880;11.484;2024-03-02T06:18:43;11.47;;;4.90;;
59571;SDS011;74587;45.880;11.484;2024-03-02T06:21:08;11.27;;;3.70;;
59571;SDS011;74587;45.880;11.484;2024-03-02T06:23:34;8.37;;;1.93;;
59571;SDS011;74587;45.880;11.484;2024-03-02T06:26:00;9.27;;;1.38;;
59571;SDS011;74587;45.880;11.484;2024-03-02T06:28:29;7.18;;;1.80;;
59571;SDS011;74587;45.880;11.484;2024-03-02T06:30:55;5.23;;;1.20;;
59571;SDS011;74587;45.880;11.484;2024-03-02T06:33:20;7.68;;;1.80;;
59571;SDS011;74587;45.880;11.484;2024-03-02T06:35:46;4.13;;;0.73;;
59571;SDS011;74587;45.880;11.484;2024-03-02T06:38:12;6.95;;;0.70;;
59571;SDS011;74587;45.880;11.484;2024-03-02T06:40:37;5.23;;;0.87;;
59571;SDS011;74587;45.880;11.484;2024-03-02T06:43:04;4.00;;;0.65;;
59571;SDS011;74587;45.880;11.484;2024-03-02T06:45:30;5.72;;;0.65;;
59571;SDS011;74587;45.880;11.484;2024-03-02T06:47:56;9.50;;;0.93;;
59571;SDS011;74587;45.880;11.484;2024-03-02T06:50:22;6.68;;;1.65;;
59571;SDS011;74587;45.880;11.484;2024-03-02T06:52:47;4.47;;;1.40;;
59571;SDS011;74587;45.880;11.484;2024-03-02T06:55:13;8.10;;;3.10;;
59571;SDS011;74587;45.880;11.484;2024-03-02T06:57:39;8.73;;;2.50;;
59571;SDS011;74587;45.880;11.484;2024-03-02T07:00:04;5.60;;;1.65;;
59571;SDS011;74587;45.880;11.484;2024-03-02T07:02:33;4.20;;;0.80;;
59571;SDS011;74587;45.880;11.484;2024-03-02T07:05:00;5.43;;;1.23;;
59571;SDS011;74587;45.880;11.484;2024-03-02T07:07:28;6.82;;;1.65;;
59571;SDS011;74587;45.880;11.484;2024-03-02T07:09:54;7.43;;;1.00;;
59571;SDS011;74587;45.880;11.484;2024-03-02T07:12:20;2.93;;;0.67;;
59571;SDS011;74587;45.880;11.484;2024-03-02T07:14:46;5.00;;;0.75;;
59571;SDS011;74587;45.880;11.484;2024-03-02T07:17:32;8.80;;;1.50;;
59571;SDS011;74587;45.880;11.484;2024-03-02T07:19:58;8.00;;;1.70;;
59571;SDS011;74587;45.880;11.484;2024-03-02T07:22:24;6.50;;;1.95;;
59571;SDS011;74587;45.880;11.484;2024-03-02T07:24:49;7.43;;;1.30;;
59571;SDS011;74587;45.880;11.484;2024-03-02T07:27:16;9.35;;;3.40;;
59571;SDS011;74587;45.880;11.484;2024-03-02T07:29:43;22.70;;;7.30;;
59571;SDS011;74587;45.880;11.484;2024-03-02T07:32:09;7.67;;;2.50;;
59571;SDS011;74587;45.880;11.484;2024-03-02T07:34:36;7.75;;;2.53;;
59571;SDS011;74587;45.880;11.484;2024-03-02T07:37:05;9.48;;;3.08;;
59571;SDS011;74587;45.880;11.484;2024-03-02T07:39:31;5.80;;;1.67;;
59571;SDS011;74587;45.880;11.484;2024-03-02T07:41:57;7.35;;;1.15;;
59571;SDS011;74587;45.880;11.484;2024-03-02T07:44:23;7.73;;;1.50;;
59571;SDS011;74587;45.880;11.484;2024-03-02T07:46:49;6.32;;;1.42;;
59571;SDS011;74587;45.880;11.484;2024-03-02T07:49:20;5.93;;;1.30;;
59571;SDS011;74587;45.880;11.484;2024-03-02T07:51:46;6.82;;;1.98;;
59571;SDS011;74587;45.880;11.484;2024-03-02T07:54:12;5.17;;;1.77;;
59571;SDS011;74587;45.880;11.484;2024-03-02T07:56:38;8.15;;;2.22;;
59571;SDS011;74587;45.880;11.484;2024-03-02T07:59:04;5.80;;;1.60;;
59571;SDS011;74587;45.880;11.484;2024-03-02T08:01:30;11.52;;;2.92;;
59571;SDS011;74587;45.880;11.484;2024-03-02T08:03:57;7.78;;;2.40;;
59571;SDS011;74587;45.880;11.484;2024-03-02T08:06:27;7.68;;;2.55;;
59571;SDS011;74587;45.880;11.484;2024-03-02T08:08:56;6.72;;;3.03;;
59571;SDS011;74587;45.880;11.484;2024-03-02T08:11:23;9.00;;;3.90;;
59571;SDS011;74587;45.880;11.484;2024-03-02T08:13:49;6.90;;;1.75;;
59571;SDS011;74587;45.880;11.484;2024-03-02T08:16:17;6.60;;;2.03;;
59571;SDS011;74587;45.880;11.484;2024-03-02T08:18:47;10.93;;;3.10;;
59571;SDS011;74587;45.880;11.484;2024-03-02T08:21:13;7.82;;;3.30;;
59571;SDS011;74587;45.880;11.484;2024-03-02T08:23:39;7.37;;;1.30;;
59571;SDS011;74587;45.880;11.484;2024-03-02T08:26:07;5.68;;;1.63;;
59571;SDS011;74587;45.880;11.484;2024-03-02T08:28:33;10.23;;;3.20;;
59571;SDS011;74587;45.880;11.484;2024-03-02T08:30:59;9.30;;;3.28;;
59571;SDS011;74587;45.880;11.484;2024-03-02T08:33:25;10.23;;;2.63;;
59571;SDS011;74587;45.880;11.484;2024-03-02T08:35:51;18.50;;;7.25;;
59571;SDS011;74587;45.880;11.484;2024-03-02T08:38:17;18.13;;;6.68;;
59571;SDS011;74587;45.880;11.484;2024-03-02T08:40:43;10.40;;;4.53;;
59571;SDS011;74587;45.880;11.484;2024-03-02T08:43:09;5.37;;;1.50;;
59571;SDS011;74587;45.880;11.484;2024-03-02T08:45:35;8.00;;;2.88;;
59571;SDS011;74587;45.880;11.484;2024-03-02T08:48:01;7.05;;;2.10;;
59571;SDS011;74587;45.880;11.484;2024-03-02T08:50:27;8.48;;;1.35;;
59571;SDS011;74587;45.880;11.484;2024-03-02T08:52:53;21.73;;;8.23;;
59571;SDS011;74587;45.880;11.484;2024-03-02T08:55:18;11.65;;;4.43;;
59571;SDS011;74587;45.880;11.484;2024-03-02T08:57:44;16.53;;;6.37;;
59571;SDS011;74587;45.880;11.484;2024-03-02T09:00:10;12.02;;;4.07;;
59571;SDS011;74587;45.880;11.484;2024-03-02T09:02:37;11.20;;;3.72;;
59571;SDS011;74587;45.880;11.484;2024-03-02T09:05:03;16.00;;;6.78;;
59571;SDS011;74587;45.880;11.484;2024-03-02T09:07:30;13.40;;;4.83;;
59571;SDS011;74587;45.880;11.484;2024-03-02T09:09:56;14.65;;;5.97;;
59571;SDS011;74587;45.880;11.484;2024-03-02T09:12:22;14.50;;;5.63;;
59571;SDS011;74587;45.880;11.484;2024-03-02T09:14:47;10.13;;;3.33;;
59571;SDS011;74587;45.880;11.484;2024-03-02T09:17:13;7.30;;;2.38;;
59571;SDS011;74587;45.880;11.484;2024-03-02T09:19:39;7.43;;;1.73;;
59571;SDS011;74587;45.880;11.484;2024-03-02T09:22:05;9.15;;;2.55;;
59571;SDS011;74587;45.880;11.484;2024-03-02T09:24:31;8.27;;;3.67;;
59571;SDS011;74587;45.880;11.484;2024-03-02T09:27:00;4.68;;;0.80;;
59571;SDS011;74587;45.880;11.484;2024-03-02T09:29:26;7.23;;;2.40;;
59571;SDS011;74587;45.880;11.484;2024-03-02T09:31:51;11.15;;;4.20;;
59571;SDS011;74587;45.880;11.484;2024-03-02T09:34:17;10.07;;;3.00;;
59571;SDS011;74587;45.880;11.484;2024-03-02T09:36:43;16.75;;;5.90;;
59571;SDS011;74587;45.880;11.484;2024-03-02T09:39:09;10.40;;;3.15;;
59571;SDS011;74587;45.880;11.484;2024-03-02T09:41:38;7.10;;;2.07;;
59571;SDS011;74587;45.880;11.484;2024-03-02T09:44:04;36.40;;;10.02;;
59571;SDS011;74587;45.880;11.484;2024-03-02T09:46:31;7.85;;;1.85;;
59571;SDS011;74587;45.880;11.484;2024-03-02T09:49:17;17.55;;;5.20;;
59571;SDS011;74587;45.880;11.484;2024-03-02T09:54:42;8.68;;;1.60;;
59571;SDS011;74587;45.880;11.484;2024-03-02T09:57:08;29.83;;;8.65;;
59571;SDS011;74587;45.880;11.484;2024-03-02T09:59:34;6.53;;;2.05;;
59571;SDS011;74587;45.880;11.484;2024-03-02T10:02:01;8.57;;;2.60;;
59571;SDS011;74587;45.880;11.484;2024-03-02T10:04:28;8.63;;;2.60;;
59571;SDS011;74587;45.880;11.484;2024-03-02T10:07:09;9.48;;;3.90;;
59571;SDS011;74587;45.880;11.484;2024-03-02T10:09:37;8.35;;;2.40;;
59571;SDS011;74587;45.880;11.484;2024-03-02T10:12:06;3.53;;;0.60;;
59571;SDS011;74587;45.880;11.484;2024-03-02T10:14:35;3.97;;;0.60;;
59571;SDS011;74587;45.880;11.484;2024-03-02T10:17:02;4.22;;;0.75;;
59571;SDS011;74587;45.880;11.484;2024-03-02T10:19:28;4.97;;;1.90;;
59571;SDS011;74587;45.880;11.484;2024-03-02T10:21:58;6.20;;;1.80;;
59571;SDS011;74587;45.880;11.484;2024-03-02T10:24:24;6.23;;;1.23;;
59571;SDS011;74587;45.880;11.484;2024-03-02T10:26:51;5.75;;;1.75;;
59571;SDS011;74587;45.880;11.484;2024-03-02T10:29:17;8.57;;;2.47;;
59571;SDS011;74587;45.880;11.484;2024-03-02T10:31:44;6.07;;;1.13;;
59571;SDS011;74587;45.880;11.484;2024-03-02T10:34:13;5.85;;;1.50;;
59571;SDS011;74587;45.880;11.484;2024-03-02T10:36:43;4.43;;;1.07;;
59571;SDS011;74587;45.880;11.484;2024-03-02T10:39:10;6.07;;;1.52;;
59571;SDS011;74587;45.880;11.484;2024-03-02T10:41:39;7.40;;;1.00;;
59571;SDS011;74587;45.880;11.484;2024-03-02T10:44:06;4.70;;;0.90;;
59571;SDS011;74587;45.880;11.484;2024-03-02T10:46:36;3.58;;;0.60;;
59571;SDS011;74587;45.880;11.484;2024-03-02T10:49:04;2.57;;;0.30;;
59571;SDS011;74587;45.880;11.484;2024-03-02T10:51:32;3.53;;;0.40;;
59571;SDS011;74587;45.880;11.484;2024-03-02T10:54:02;5.13;;;0.50;;
59571;SDS011;74587;45.880;11.484;2024-03-02T10:56:32;9.18;;;1.95;;
59571;SDS011;74587;45.880;11.484;2024-03-02T11:01:39;5.40;;;1.37;;
59571;SDS011;74587;45.880;11.484;2024-03-02T11:04:09;4.07;;;0.70;;
59571;SDS011;74587;45.880;11.484;2024-03-02T11:06:37;2.78;;;0.50;;
59571;SDS011;74587;45.880;11.484;2024-03-02T11:09:06;4.55;;;0.70;;
59571;SDS011;74587;45.880;11.484;2024-03-02T11:11:40;3.22;;;0.65;;
59571;SDS011;74587;45.880;11.484;2024-03-02T11:14:09;6.13;;;3.17;;
59571;SDS011;74587;45.880;11.484;2024-03-02T11:16:38;18.95;;;10.80;;
59571;SDS011;74587;45.880;11.484;2024-03-02T11:19:06;7.30;;;3.33;;
59571;SDS011;74587;45.880;11.484;2024-03-02T11:21:37;16.95;;;9.18;;
59571;SDS011;74587;45.880;11.484;2024-03-02T11:27:03;7.83;;;3.00;;
59571;SDS011;74587;45.880;11.484;2024-03-02T11:32:02;7.78;;;3.88;;
59571;SDS011;74587;45.880;11.484;2024-03-02T11:34:34;11.43;;;5.43;;
59571;SDS011;74587;45.880;11.484;2024-03-02T11:37:01;7.72;;;2.33;;
59571;SDS011;74587;45.880;11.484;2024-03-02T11:39:28;11.20;;;4.73;;
59571;SDS011;74587;45.880;11.484;2024-03-02T11:41:57;11.77;;;6.68;;
59571;SDS011;74587;45.880;11.484;2024-03-02T11:44:26;13.73;;;8.75;;
59571;SDS011;74587;45.880;11.484;2024-03-02T11:46:59;13.07;;;6.80;;
59571;SDS011;74587;45.880;11.484;2024-03-02T11:52:07;6.30;;;2.33;;
59571;SDS011;74587;45.880;11.484;2024-03-02T11:54:34;6.32;;;1.95;;
59571;SDS011;74587;45.880;11.484;2024-03-02T11:57:19;4.55;;;1.10;;
59571;SDS011;74587;45.880;11.484;2024-03-02T11:59:49;5.43;;;1.20;;
59571;SDS011;74587;45.880;11.484;2024-03-02T12:02:16;5.87;;;2.43;;
59571;SDS011;74587;45.880;11.484;2024-03-02T12:04:45;11.40;;;5.10;;
59571;SDS011;74587;45.880;11.484;2024-03-02T12:07:18;12.45;;;4.95;;
59571;SDS011;74587;45.880;11.484;2024-03-02T12:09:47;6.57;;;2.03;;
59571;SDS011;74587;45.880;11.484;2024-03-02T12:12:13;5.45;;;1.45;;
59571;SDS011;74587;45.880;11.484;2024-03-02T12:14:52;18.23;;;7.90;;
59571;SDS011;74587;45.880;11.484;2024-03-02T12:17:20;15.13;;;7.28;;
59571;SDS011;74587;45.880;11.484;2024-03-02T12:19:46;22.52;;;8.75;;
59571;SDS011;74587;45.880;11.484;2024-03-02T12:22:12;18.33;;;7.22;;
59571;SDS011;74587;45.880;11.484;2024-03-02T12:24:38;11.07;;;4.17;;
59571;SDS011;74587;45.880;11.484;2024-03-02T12:27:05;14.73;;;4.72;;
59571;SDS011;74587;45.880;11.484;2024-03-02T12:29:32;15.10;;;5.90;;
59571;SDS011;74587;45.880;11.484;2024-03-02T12:31:59;12.05;;;6.20;;
59571;SDS011;74587;45.880;11.484;2024-03-02T12:34:30;7.10;;;2.30;;
59571;SDS011;74587;45.880;11.484;2024-03-02T12:36:58;5.20;;;1.50;;
59571;SDS011;74587;45.880;11.484;2024-03-02T12:39:24;3.00;;;0.98;;
59571;SDS011;74587;45.880;11.484;2024-03-02T12:41:50;4.65;;;1.08;;
59571;SDS011;74587;45.880;11.484;2024-03-02T12:44:16;2.83;;;0.63;;
59571;SDS011;74587;45.880;11.484;2024-03-02T12:46:43;4.07;;;0.70;;
59571;SDS011;74587;45.880;11.484;2024-03-02T12:49:10;6.20;;;2.20;;
59571;SDS011;74587;45.880;11.484;2024-03-02T12:51:38;6.80;;;2.35;;
59571;SDS011;74587;45.880;11.484;2024-03-02T12:54:08;20.65;;;7.07;;
59571;SDS011;74587;45.880;11.484;2024-03-02T12:56:38;14.97;;;6.40;;
59571;SDS011;74587;45.880;11.484;2024-03-02T13:01:51;11.40;;;3.67;;
59571;SDS011;74587;45.880;11.484;2024-03-02T13:04:24;7.03;;;2.40;;
59571;SDS011;74587;45.880;11.484;2024-03-02T13:06:51;8.93;;;3.63;;
59571;SDS011;74587;45.880;11.484;2024-03-02T13:09:18;8.13;;;3.17;;
59571;SDS011;74587;45.880;11.484;2024-03-02T13:11:57;8.82;;;3.72;;
59571;SDS011;74587;45.880;11.484;2024-03-02T13:17:58;7.82;;;2.70;;
59571;SDS011;74587;45.880;11.484;2024-03-02T13:21:04;6.32;;;2.97;;
59571;SDS011;74587;45.880;11.484;2024-03-02T13:23:30;13.70;;;7.63;;
59571;SDS011;74587;45.880;11.484;2024-03-02T13:25:57;8.23;;;4.38;;
59571;SDS011;74587;45.880;11.484;2024-03-02T13:31:46;17.55;;;11.10;;
59571;SDS011;74587;45.880;11.484;2024-03-02T13:34:12;12.27;;;6.20;;
59571;SDS011;74587;45.880;11.484;2024-03-02T13:36:38;19.92;;;11.30;;
59571;SDS011;74587;45.880;11.484;2024-03-02T13:39:04;18.90;;;10.03;;
59571;SDS011;74587;45.880;11.484;2024-03-02T13:41:35;7.47;;;3.78;;
59571;SDS011;74587;45.880;11.484;2024-03-02T13:44:01;11.85;;;4.65;;
59571;SDS011;74587;45.880;11.484;2024-03-02T13:46:28;6.53;;;2.80;;
59571;SDS011;74587;45.880;11.484;2024-03-02T13:48:54;5.43;;;2.50;;
59571;SDS011;74587;45.880;11.484;2024-03-02T13:51:20;7.43;;;2.70;;
59571;SDS011;74587;45.880;11.484;2024-03-02T13:53:46;5.22;;;2.47;;
59571;SDS011;74587;45.880;11.484;2024-03-02T13:56:11;6.23;;;2.33;;
59571;SDS011;74587;45.880;11.484;2024-03-02T13:58:37;5.87;;;2.27;;
59571;SDS011;74587;45.880;11.484;2024-03-02T14:01:04;3.88;;;0.70;;
59571;SDS011;74587;45.880;11.484;2024-03-02T14:03:30;3.88;;;1.50;;
59571;SDS011;74587;45.880;11.484;2024-03-02T14:05:56;3.03;;;0.73;;
59571;SDS011;74587;45.880;11.484;2024-03-02T14:08:22;2.53;;;0.35;;
59571;SDS011;74587;45.880;11.484;2024-03-02T14:10:48;2.83;;;0.30;;
59571;SDS011;74587;45.880;11.484;2024-03-02T14:13:14;2.67;;;0.45;;
59571;SDS011;74587;45.880;11.484;2024-03-02T14:15:41;3.75;;;0.50;;
59571;SDS011;74587;45.880;11.484;2024-03-02T14:18:07;3.25;;;0.88;;
59571;SDS011;74587;45.880;11.484;2024-03-02T14:20:35;3.30;;;0.63;;
59571;SDS011;74587;45.880;11.484;2024-03-02T14:23:01;4.63;;;1.33;;
59571;SDS011;74587;45.880;11.484;2024-03-02T14:25:28;7.30;;;2.22;;
59571;SDS011;74587;45.880;11.484;2024-03-02T14:27:56;5.00;;;1.38;;
59571;SDS011;74587;45.880;11.484;2024-03-02T14:30:23;14.82;;;6.80;;
59571;SDS011;74587;45.880;11.484;2024-03-02T14:32:49;9.80;;;4.17;;
59571;SDS011;74587;45.880;11.484;2024-03-02T14:35:14;17.65;;;7.53;;
59571;SDS011;74587;45.880;11.484;2024-03-02T14:37:40;13.07;;;6.30;;
59571;SDS011;74587;45.880;11.484;2024-03-02T14:40:06;19.30;;;11.02;;
59571;SDS011;74587;45.880;11.484;2024-03-02T14:42:34;15.35;;;7.72;;
59571;SDS011;74587;45.880;11.484;2024-03-02T14:45:01;15.15;;;7.45;;
59571;SDS011;74587;45.880;11.484;2024-03-02T14:47:33;10.37;;;4.67;;
59571;SDS011;74587;45.880;11.484;2024-03-02T14:50:00;10.32;;;5.00;;
59571;SDS011;74587;45.880;11.484;2024-03-02T14:52:26;33.92;;;20.95;;
59571;SDS011;74587;45.880;11.484;2024-03-02T14:54:52;19.40;;;8.57;;
59571;SDS011;74587;45.880;11.484;2024-03-02T14:57:17;26.87;;;12.43;;
59571;SDS011;74587;45.880;11.484;2024-03-02T14:59:43;20.60;;;9.25;;
59571;SDS011;74587;45.880;11.484;2024-03-02T15:02:09;13.53;;;6.40;;
59571;SDS011;74587;45.880;11.484;2024-03-02T15:04:35;33.92;;;15.05;;